Weerstation
Sluispark-LeuvenLeuven-Sluispark



Het weer levert geen direct gevaar op.    Er zijn geen waarschuwingen afgegeven.

Nabijgelegen vliegvelden - METAR rapporten

   
EBBR - Wilsele bij Leuven
Gewijzigd: 23-10-2019 08:50
Wat regen mogelijk, Nevel, Gedeeltelijk bewolkt    Wind: ONO 5.6 km/h
Wat regen mogelijk, Nevel, Gedeeltelijk bewolkt
Wind: Wind: ONO 5.6 km/h
Temperatuur: 11°C
Dauwpunt: 10°C
Vochtigheid: 94%
Barometer: 1017 hPa
Bewolking: Gedeeltelijk bewolkt
Zicht: 5 km
Bewolking: Gedeeltelijk bewolkt
EBBR 230650Z 06003KT 040V100 4900 -RA BR NSC 11/10 Q1017 BECMG 6000 NSW
EBAW - Antwerp
Gewijzigd: 23-10-2019 08:50
Nevel, Licht bewolkt    Wind: NO 11.1 km/h
Nevel, Licht bewolkt
Wind: Wind: NO 11.1 km/h
Temperatuur: 11°C
Dauwpunt: 10°C
Vochtigheid: 94%
Barometer: 1018 hPa
Bewolking: Licht bewolkt
Zicht: 5 km
Bewolking: Licht bewolkt 914.4 m
EBAW 230650Z 04006KT 010V070 4800 BR FEW030 11/10 Q1018 BECMG 6000 NSW
EBLG - Li├Ęge
Gewijzigd: 23-10-2019 08:50
Gedeeltelijk bewolkt    Wind: ONO 9.3 km/h
Gedeeltelijk bewolkt
Wind: Wind: ONO 9.3 km/h
Temperatuur: 11°C
Dauwpunt: 9°C
Vochtigheid: 88%
Barometer: 1017 hPa
Bewolking: Gedeeltelijk bewolkt
Zicht: 8 km
Bewolking: Gedeeltelijk bewolkt
EBLG 230650Z 06005KT 030V130 8000 NSC 11/09 Q1017 TEMPO 4500 BR
EBCV - Mons/Bergen
Gewijzigd: 23-10-2019 08:55
   Wind: varieert 1.9 km/h
Wind: Wind: varieert 1.9 km/h
Temperatuur: 14°C
Dauwpunt: 10°C
Vochtigheid: 77%
Barometer: 1024 hPa
EBCV 230655Z AUTO VRB01KT //// /// 14/10 Q1024
EHBK - Maastricht
Gewijzigd: 23-10-2019 08:55
Gedeeltelijk bewolkt    Wind: NO 16.7 km/h
Gedeeltelijk bewolkt
Wind: Wind: NO 16.7 km/h
Temperatuur: 11°C
Dauwpunt: 10°C
Vochtigheid: 94%
Barometer: 1017 hPa
Bewolking: Gedeeltelijk bewolkt
Zicht: 8 km
Bewolking: Gedeeltelijk bewolkt
EHBK 230655Z AUTO 05009KT 010V070 8000 NSC 11/10 Q1017 TEMPO 7000
ELLX - Luxemburg
Gewijzigd: 23-10-2019 08:50
Helder    Wind: NO 18.5 km/h
Helder
Wind: Wind: NO 18.5 km/h
Temperatuur: 9°C
Voelt als: 6°C
Dauwpunt: 8°C
Vochtigheid: 94%
Barometer: 1016 hPa
Zicht: meer dan 10 km
Bewolking: Helder
ELLX 230650Z 05010KT CAVOK 09/08 Q1016 NOSIG
EBOS - Oostende
Gewijzigd: 23-10-2019 08:50
Gedeeltelijk bewolkt    Wind: ONO 11.1 km/h
Gedeeltelijk bewolkt
Wind: Wind: ONO 11.1 km/h
Temperatuur: 11°C
Dauwpunt: 9°C
Vochtigheid: 88%
Barometer: 1017 hPa
Bewolking: Gedeeltelijk bewolkt
Zicht: 7 km
Bewolking: Gedeeltelijk bewolkt
EBOS 230650Z 07006KT 7000 NSC 11/09 Q1017 NOSIG
  

Script ontwikkeld door  Saratoga-weather.org Aangepast voor de template door  Weerstation Leuven

U vindt ons ook hier:

UK Metoffice

WeatherCloud

European Weather Network

Weather Underground

Benelux Weather Network

AWEKAS

WeatherlinkIP

Het Weer Aktueel

Apparatuur in gebruik:

Weer-station
Davis VP2 weatherstation

Weer-programma
Meteobridge

Weer-computer
D-Link DIR-505

Webleverancier
Robohost

Davis VP2 weatherstation

Meteobridge

D-Link DIR-505

Robohost